AirNav   Everest Fuels
 
 1389 users online  

3IL8 Kuntz Airport
Gridley, Illinois, USA

GOING TO GRIDLEY?


FAA INFORMATION EFFECTIVE 01 DECEMBER 2022

Location

FAA Identifier: 3IL8
Lat/Long: 40-41-52.6000N 088-56-49.2000W
40-41.876667N 088-56.820000W
40.6979444,-88.9470000
(estimated)
Elevation: 760 ft. / 232 m
From city: 4 miles SW of GRIDLEY, IL
Time zone: UTC -6 (UTC -5 during Daylight Saving Time)
Zip code: 61738

Airport Operations

Airport use: Private use. Permission required prior to landing
Activation date: 12/2018
Control tower: no
ARTCC: KANSAS CITY CENTER
FSS: KANKAKEE FLIGHT SERVICE STATION
Attendance: 
Wind indicator: yes
Segmented circle: no

Airport Communications

WX AWOS-3PT at BMI (13 nm S): 135.35 (309-661-9478)
WX AWOS-3 at PNT (20 nm NE): 119.675 (815-844-0923)

Nearby radio navigation aids

VOR radial/distance  VOR name  Freq  Var
PNTr230/12.2PONTIAC VOR/DME109.6003E
BMIr354/13.0BLOOMINGTON VOR/DME108.2003E
RBSr279/36.3ROBERTS VOR/DME116.8002E
PIAr084/38.5PEORIA VORTAC115.2004E

 
NDB name  Hdg/Dist  Freq  Var  ID
EGROW341/8.933403WLH .-.. ....
ABRAHAM029/36.932900EAAA .- .- .-

Airport Services

Runway Information

Runway 18/36

Dimensions: 2800 x 100 ft. / 853 x 30 m
Surface: turf
RUNWAY 18  RUNWAY 36
Traffic pattern: leftleft
Displaced threshold: 600 ft.no

Airport Ownership and Management from official FAA records

Ownership: Privately-owned
Owner: RUSSELL KUNTZ
17045 E. 2850 N.
GRIDLEY, IL 61744
Phone 309-527-5629
Manager: RUSSELL KUNTZ
17045 E. 2850 N.
GRIDLEY, IL 61744
Phone 309-527-5629

Airport Operational Statistics

Aircraft based on the field: 1
Single engine airplanes: 1
    

Additional Remarks

OWNER REQ ARPT BE CHARTED.

Instrument Procedures

There are no published instrument procedures at 3IL8.

Some nearby airports with instrument procedures:

KBMI - Central Illinois Regional Airport/Bloomington-Normal (13 nm S)
KPNT - Pontiac Municipal Airport (20 nm NE)
C75 - Marshall County Airport (28 nm NW)
3MY - Mount Hawley Auxiliary Airport (31 nm W)
KPIA - General Downing - Peoria International Airport (34 nm W)
 
Loc | Ops | Rwys | IFR | FBO | Links
Com | Nav | Svcs | Stats | Notes
Aerial photo
No photo
 
Airport distance calculator
Flying to Kuntz Airport? Find the distance to fly.

From to 3IL8

Sunrise and sunset
Times for 07-Dec-2022
 Local
(UTC-6)
 Zulu
(UTC)
Morning civil twilight06:3712:37
Sunrise07:0713:07
Sunset16:2722:27
Evening civil twilight16:5822:58

Current date and time
Zulu (UTC)  07-Dec-2022 14:57:27
Local (UTC-6)  07-Dec-2022 08:57:27
 
METAR
KBMI 
14nm S 
071448Z 05005KT 3SM BR OVC005 04/04 A3024 RMK AO2
KPNT 
19nm NE 
071430Z AUTO 00000KT 1SM BR OVC002 04/04 A3024 RMK AO2 T00420042
KC75 
28nm NW 
071435Z AUTO 00000KT 3SM BR OVC010 04/03 A3024 RMK AO2 T00360027
TAF
KBMI 
14nm S 
071121Z 0712/0812 36004KT 3SM BR OVC003 TEMPO 0712/0714 1/2SM FG VV002 FM071600 VRB03KT P6SM BKN006 FM080100 05006KT P6SM BKN012
NOTAMs
Click for the latest NOTAMs
NOTAMs are issued by the DoD/FAA and will open in a separate window not controlled by AirNav.

 

 
 

Would you like to see your business listed on this page?

 If your business provides an interesting product or service to pilots, flight crews, aircraft, or users of the Kuntz Airport, you should consider listing it here.  To start the listing process, click on the button below
 
Add a business
 

Other Pages about Kuntz Airport

Update a link
 
Copyright © AirNav, LLC. All rights reserved. Privacy Policy  Contact